Data for 08/29/2005

Time Sea-Level Adjusted Pressure Absolute Pressure Temperature Relative Humidity Dew Point   
(mb) (inHg) (mb) (inHg) (C) (F) (%) (C) (F)
00:05 1016 30 845 24.95 20.1 68.1 25 -0.3 31.5
00:10 1016 30 845 24.95 20.3 68.6 24 -0.8 30.5
00:15 1016 30 845 24.95 20.6 69.1 24 -0.8 30.6
00:20 1016 30 845 24.95 20.5 68.9 23 -1.1 30
00:25 1016 30 845 24.95 20.7 69.2 23 -0.8 30.6
00:30 1016 30 845 24.95 20.6 69.1 23 -1 30.2
00:35 1016 30 845 24.95 20.6 69 23 -0.9 30.3
00:40 1016 30 845 24.95 20.4 68.8 24 -0.7 30.7
00:45 1016 30 845 24.95 20.6 69 23 -1 30.2
00:50 1016 30 845 24.95 20.4 68.7 24 -0.8 30.6
00:55 1016 30 845 24.95 20.1 68.3 24 -0.7 30.7
01:00 1016 30 845 24.95 20.5 68.8 24 -0.9 30.5
01:05 1016 30 845 24.95 20.4 68.8 23 -1.2 29.8
01:10 1016 30 845 24.95 20.4 68.7 23 -1.4 29.5
01:15 1016 30 845 24.95 20.2 68.3 25 -0.6 31
01:20 1016 30 845 24.95 19.8 67.6 24 -1.2 29.8
01:25 1016 30 845 24.95 19.8 67.7 25 -0.5 31.1
01:30 1016 30 845 24.95 19.7 67.4 25 -1 30.3
01:35 1016 30 845 24.95 19.3 66.8 25 -1.2 29.8
01:40 1016 30 845 24.95 19.3 66.8 25 -1.1 30
01:45 1016 30 845 24.95 19 66.3 26 -0.8 30.6
01:50 1016 30 845 24.95 19 66.3 25 -1.3 29.6
01:55 1016 30 845 24.95 19 66.3 25 -1.2 29.8
02:00 1016 30 845 24.95 19.1 66.3 25 -1.2 29.9
02:05 1016 30 845 24.95 18.9 66.1 26 -1 30.3
02:10 1016 30 845 24.95 18.9 66 25 -1.2 29.8
02:15 1016 30 845 24.95 18.7 65.6 25 -1.8 28.7
02:20 1016 30 845 24.95 18.6 65.5 24 -2 28.4
02:25 1016 30 845 24.95 18.7 65.6 24 -2.1 28.2
02:30 1016 30 845 24.95 18.6 65.4 25 -1.6 29.1
02:35 1016 30 845 24.95 18.2 64.8 25 -1.7 28.9
02:40 1016 30 845 24.95 18.2 64.7 25 -2 28.4
02:45 1016 30 845 24.95 18.2 64.8 25 -1.9 28.6
02:50 1015 29.97 845 24.95 18.5 65.3 23 -2.7 27.1
02:55 1015 29.97 845 24.95 18.6 65.4 24 -2.5 27.5
03:00 1015 29.97 845 24.95 18.6 65.5 23 -2.8 27
03:05 1015 29.97 845 24.95 18.4 65.1 24 -2.2 28
03:10 1015 29.97 845 24.95 18.4 65.2 23 -2.8 26.9
03:15 1015 29.97 845 24.95 18.4 65.1 23 -3.1 26.5
03:20 1015 29.97 845 24.95 18.6 65.6 22 -3.2 26.3
03:25 1015 29.97 845 24.95 18.6 65.5 23 -3 26.5
03:30 1015 29.97 845 24.95 18.7 65.6 22 -3.5 25.7
03:35 1015 29.97 845 24.95 18.5 65.3 23 -2.9 26.7
03:40 1015 29.97 845 24.95 19 66.2 21 -3.4 25.8
03:45 1015 29.97 845 24.95 19 66.1 21 -4 24.7
03:50 1015 29.97 845 24.95 19.2 66.5 21 -3.8 25.2
03:55 1015 29.97 845 24.95 18.9 66 22 -3.4 25.9
04:00 1015 29.97 845 24.95 18.4 65.2 23 -3.1 26.4
04:05 1015 29.97 845 24.95 18.2 64.8 23 -3.4 25.9
04:10 1015 29.97 845 24.95 17.9 64.3 24 -2.8 26.9
04:15 1015 29.97 845 24.95 17.6 63.6 24 -2.9 26.7
04:20 1015 29.97 845 24.95 17.8 64 24 -2.9 26.8
04:25 1015 29.97 844 24.92 17.7 63.9 24 -3 26.5
04:30 1015 29.97 844 24.92 17.5 63.6 24 -3.3 26
04:35 1015 29.97 844 24.92 17.7 63.8 23 -3.7 25.3
04:40 1015 29.97 844 24.92 17.7 63.8 23 -3.4 26
04:45 1015 29.97 844 24.92 17.4 63.4 24 -3.5 25.8
04:50 1015 29.97 844 24.92 17.7 63.8 22 -4.1 24.6
04:55 1015 29.97 844 24.92 18.1 64.6 22 -3.9 24.9
05:00 1015 29.97 844 24.92 18 64.4 22 -3.9 25
05:05 1015 29.97 844 24.92 17.8 64.1 23 -3.5 25.6
05:10 1015 29.97 844 24.92 17.9 64.1 23 -3.2 26.3
05:15 1015 29.97 844 24.92 17.6 63.7 24 -3.3 26.1
05:20 1015 29.97 844 24.92 17.4 63.3 23 -4.1 24.7
05:25 1015 29.97 844 24.92 17.7 63.9 24 -3.1 26.4
05:30 1015 29.97 844 24.92 17.7 63.8 23 -3.5 25.8
05:35 1015 29.97 844 24.92 17.2 62.9 24 -3.5 25.6
05:40 1015 29.97 844 24.92 17.2 62.9 24 -3.7 25.3
05:45 1015 29.97 844 24.92 17.1 62.8 26 -2.6 27.3
05:50 1015 29.97 844 24.92 17.1 62.7 24 -3.5 25.7
05:55 1015 29.97 844 24.92 16.9 62.3 24 -3.5 25.8
06:00 1015 29.97 844 24.92 17 62.6 24 -3.7 25.4
06:05 1015 29.97 844 24.92 17.1 62.8 24 -3.7 25.3
06:10 1015 29.97 844 24.92 17.2 62.9 23 -4.1 24.5
06:15 1015 29.97 844 24.92 17.5 63.5 23 -4 24.8
06:20 1015 29.97 844 24.92 17.8 64 22 -3.8 25.1
06:25 1015 29.97 844 24.92 17.1 62.9 24 -3.3 26.1
06:30 1015 29.97 844 24.92 17 62.5 25 -3.1 26.5
06:35 1015 29.97 844 24.92 17.2 62.9 23 -4.1 24.7
06:40 1015 29.97 844 24.92 17.8 64 22 -4.3 24.3
06:45 1015 29.97 844 24.92 18 64.3 22 -3.9 24.9
06:50 1015 29.97 844 24.92 18 64.4 22 -4.1 24.6
06:55 1015 29.97 844 24.92 18 64.4 21 -4.4 24
07:00 1015 29.97 844 24.92 18.4 65 21 -4.5 23.9
07:05 1015 29.97 844 24.92 18.6 65.4 20 -4.4 24.1
07:10 1015 29.97 844 24.92 18.7 65.6 20 -4.3 24.3
07:15 1015 29.97 844 24.92 18.6 65.5 21 -3.9 25
07:20 1015 29.97 844 24.92 18.6 65.4 21 -4 24.8
07:25 1015 29.97 844 24.92 18.7 65.6 21 -3.8 25.1
07:30 1015 29.97 844 24.92 19 66.2 20 -4.1 24.6
07:35 1014 29.94 844 24.92 19.2 66.6 20 -4.1 24.7
07:40 1014 29.94 844 24.92 19.3 66.8 20 -3.8 25.2
07:45 1014 29.94 844 24.92 19.5 67 21 -3.5 25.6
07:50 1014 29.94 844 24.92 19.6 67.3 21 -3.4 25.9
07:55 1014 29.94 844 24.92 19.7 67.5 21 -3.3 26.1
08:00 1014 29.94 844 24.92 20 67.9 21 -3.2 26.3
08:05 1014 29.94 844 24.92 20.2 68.3 20 -3.2 26.3
08:10 1014 29.94 844 24.92 20.3 68.5 21 -2.8 27
08:15 1014 29.94 844 24.92 20.3 68.5 21 -2.9 26.8
08:20 1014 29.94 844 24.92 20.6 69.1 20 -3 26.7
08:25 1014 29.94 843 24.89 21.2 70.2 19 -3.3 26.1
08:30 1014 29.94 843 24.89 21.6 70.8 19 -3.1 26.4
08:35 1014 29.94 843 24.89 21.9 71.4 18 -3.1 26.5
08:40 1014 29.94 843 24.89 22.3 72.1 17 -3.5 25.7
08:45 1014 29.94 843 24.89 22.5 72.6 18 -2.9 26.9
08:50 1014 29.94 843 24.89 22.8 73.1 17 -3.5 25.7
08:55 1014 29.94 843 24.89 23.2 73.8 16 -3.9 24.9
09:00 1014 29.94 843 24.89 23.5 74.2 16 -3.9 25.1
09:05 1014 29.94 843 24.89 23.7 74.7 16 -3.4 25.9
09:10 1014 29.94 843 24.89 23.9 75 16 -3.1 26.4
09:15 1014 29.94 843 24.89 24.1 75.4 17 -2.4 27.7
09:20 1014 29.94 843 24.89 24.5 76 16 -2.4 27.6
09:25 1014 29.94 843 24.89 24.8 76.6 16 -3 26.7
09:30 1014 29.94 843 24.89 25 77 16 -2.4 27.7
09:35 1014 29.94 843 24.89 25.4 77.8 15 -2.5 27.5
09:40 1014 29.94 843 24.89 26 78.7 15 -2.2 28
09:45 1014 29.94 843 24.89 26.1 78.9 15 -2.1 28.3
09:50 1014 29.94 843 24.89 26.5 79.7 15 -2.2 28.1
09:55 1014 29.94 843 24.89 26.8 80.3 15 -1.8 28.8
10:00 1014 29.94 843 24.89 27.4 81.2 15 -1.5 29.2
10:05 1014 29.94 843 24.89 27.8 82 15 -1 30.3
10:10 1014 29.94 843 24.89 28.1 82.5 14 -1.5 29.2
10:15 1014 29.94 843 24.89 28.6 83.4 14 -1.1 30
10:20 1014 29.94 843 24.89 28.7 83.6 14 -0.9 30.4
10:25 1014 29.94 843 24.89 29 84.1 13 -1.6 29.2
10:30 1013 29.91 843 24.89 28.8 83.8 14 -1.3 29.6
10:35 1013 29.91 843 24.89 28.7 83.7 13 -1.8 28.8
10:40 1013 29.91 843 24.89 29.1 84.4 13 -1.5 29.2
10:45 1013 29.91 842 24.86 29.4 84.9 13 -1.6 29.1
10:50 1013 29.91 842 24.86 29.7 85.4 12 -2.9 26.8
10:55 1013 29.91 842 24.86 29.7 85.4 11 -3.3 26.1
11:00 1013 29.91 842 24.86 29.5 85.1 13 -1.9 28.5
11:05 1013 29.91 842 24.86 29.6 85.2 11 -3.1 26.4
11:10 1013 29.91 842 24.86 29.5 85.2 11 -4.2 24.4
11:15 1013 29.91 842 24.86 29.6 85.3 11 -3.2 26.2
11:20 1013 29.91 842 24.86 29.4 85 12 -2.9 26.7
11:25 1013 29.91 842 24.86 29.4 85 12 -2.9 26.9
11:30 1013 29.91 842 24.86 29.6 85.3 12 -2.6 27.4
11:35 1012 29.88 842 24.86 29.7 85.4 11 -3.1 26.3
11:40 1012 29.88 842 24.86 29.8 85.7 13 -1.3 29.7
11:45 1012 29.88 842 24.86 30.6 87.1 12 -1.9 28.6
11:50 1012 29.88 842 24.86 30.8 87.5 11 -2.3 27.9
11:55 1012 29.88 842 24.86 30.9 87.7 11 -2.6 27.3
12:00 1012 29.88 841 24.83 30.7 87.2 11 -2.7 27.2
12:05 1012 29.88 841 24.83 30.6 87.1 12 -2.2 28.1
12:10 1012 29.88 841 24.83 31 87.8 10 -3.8 25.1
12:15 1012 29.88 841 24.83 30.6 87.1 10 -4.6 23.8
12:20 1012 29.88 841 24.83 30.5 86.8 11 -3.4 25.9
12:25 1012 29.88 841 24.83 30.9 87.6 10 -3.7 25.3
12:30 1012 29.88 841 24.83 30.6 87 11 -3.2 26.3
12:35 1012 29.88 841 24.83 30.5 86.8 11 -3.1 26.4
12:40 1012 29.88 841 24.83 30.8 87.4 11 -2.6 27.3
12:45 1011 29.85 841 24.83 30.9 87.6 10 -3.3 26
12:50 1011 29.85 841 24.83 30.8 87.5 10 -3.6 25.6
12:55 1011 29.85 841 24.83 30.8 87.4 11 -2.7 27.2
13:00 1011 29.85 841 24.83 30.8 87.4 11 -3.1 26.4
13:05 1011 29.85 840 24.81 30.8 87.5 11 -3.1 26.5
13:10 1011 29.85 840 24.81 31.1 87.9 10 -3.4 25.8
13:15 1011 29.85 840 24.81 31.2 88.2 11 -2.7 27.2
13:20 1011 29.85 840 24.81 31.2 88.2 10 -3.1 26.4
13:25 1011 29.85 840 24.81 31.1 88 10 -3.5 25.7
13:30 1011 29.85 840 24.81 31.4 88.5 11 -2.2 28.1
13:35 1011 29.85 840 24.81 31.5 88.8 10 -3.4 25.9
13:40 1011 29.85 840 24.81 31.8 89.3 10 -3.9 25
13:45 1011 29.85 840 24.81 32.2 90 10 -2.5 27.6
13:50 1010 29.83 840 24.81 32.2 89.9 10 -3.2 26.2
13:55 1011 29.85 840 24.81 32 89.7 10 -3.1 26.5
14:00 1010 29.83 840 24.81 32.1 89.8 11 -2 28.3
14:05 1010 29.83 840 24.81 32.2 89.9 10 -3.6 25.5
14:10 1010 29.83 840 24.81 31.9 89.3 9 -4.1 24.6
14:15 1010 29.83 840 24.81 31.7 89.1 11 -2.2 28.1
14:20 1010 29.83 840 24.81 31.6 88.9 10 -3.6 25.5
14:25 1010 29.83 840 24.81 31.3 88.4 10 -3.6 25.5
14:30 1010 29.83 839 24.78 31.4 88.5 11 -2.9 26.8
14:35 1010 29.83 839 24.78 31.8 89.3 10 -3.2 26.2
14:40 1010 29.83 839 24.78 32.1 89.8 10 -2.6 27.4
14:45 1010 29.83 839 24.78 32.6 90.7 10 -3.2 26.3
14:50 1010 29.83 839 24.78 32 89.6 10 -3.3 26
14:55 1010 29.83 839 24.78 32 89.6 10 -3.2 26.3
15:00 1010 29.83 839 24.78 32.2 90 10 -3.1 26.4
15:05 1010 29.83 839 24.78 32.3 90.1 9 -3.5 25.6
15:10 1009 29.8 839 24.78 32.5 90.4 10 -3 26.6
15:15 1010 29.83 839 24.78 32.6 90.8 10 -2.3 27.9
15:20 1010 29.83 839 24.78 32.7 90.8 10 -2.2 28.1
15:25 1009 29.8 839 24.78 32.4 90.3 10 -2.5 27.5
15:30 1009 29.8 838 24.75 32.7 90.8 10 -3.1 26.4
15:35 1009 29.8 838 24.75 32.6 90.6 9 -3.4 25.8
15:40 1009 29.8 838 24.75 32.6 90.6 10 -3 26.7
15:45 1009 29.8 838 24.75 32.1 89.8 9 -4 24.8
15:50 1009 29.8 838 24.75 32.6 90.7 10 -2.7 27.2
15:55 1009 29.8 838 24.75 32.3 90.2 10 -2.7 27.1
16:00 1009 29.8 838 24.75 32.4 90.3 10 -2.7 27.2
16:05 1009 29.8 838 24.75 32.3 90.1 10 -3.2 26.2
16:10 1009 29.8 838 24.75 32.4 90.3 11 -1.5 29.4
16:15 1009 29.8 838 24.75 32.2 90 10 -2.8 27
16:20 1009 29.8 838 24.75 32.2 90 10 -3.5 25.6
16:25 1009 29.8 838 24.75 31.9 89.3 10 -3.4 25.8
16:30 1009 29.8 838 24.75 32.2 90 10 -3 26.5
16:35 1009 29.8 838 24.75 32.3 90.2 10 -3.1 26.4
16:40 1009 29.8 838 24.75 32.4 90.2 10 -2.8 27
16:45 1009 29.8 838 24.75 31.9 89.5 10 -2.8 27
16:50 1009 29.8 838 24.75 32.1 89.8 11 -2.1 28.2
16:55 1009 29.8 838 24.75 32.4 90.4 10 -3.3 26
17:00 1009 29.8 838 24.75 32.6 90.7 10 -2.6 27.3
17:05 1008 29.77 838 24.75 32.6 90.7 11 -1.8 28.8
17:10 1008 29.77 838 24.75 32.4 90.2 10 -2.3 27.9
17:15 1008 29.77 838 24.75 32.3 90.1 11 -2 28.5
17:20 1008 29.77 838 24.75 32.3 90.1 10 -3.4 25.9
17:25 1008 29.77 838 24.75 32.3 90.2 9 -3.5 25.7
17:30 1008 29.77 838 24.75 32.1 89.8 10 -2.9 26.8
17:35 1008 29.77 838 24.75 32 89.6 11 -1.8 28.7
17:40 1008 29.77 838 24.75 32.1 89.8 11 -2 28.4
17:45 1008 29.77 837 24.72 31.9 89.5 10 -3.3 26.1
17:50 1008 29.77 838 24.75 31.9 89.3 10 -3.3 26.1
17:55 1008 29.77 838 24.75 31.8 89.2 10 -2.9 26.7
18:00 1008 29.77 838 24.75 31.6 88.8 11 -1.7 28.9
18:05 1008 29.77 838 24.75 31.3 88.4 11 -2.8 26.9
18:10 1008 29.77 838 24.75 31.2 88.2 11 -2.3 27.9
18:15 1008 29.77 838 24.75 31.2 88.2 10 -3.3 26
18:20 1008 29.77 838 24.75 31.1 88 11 -2.8 26.9
18:25 1008 29.77 838 24.75 31 87.8 11 -2.1 28.1
18:30 1008 29.77 838 24.75 30.8 87.4 11 -3.1 26.4
18:35 1008 29.77 838 24.75 30.8 87.4 10 -3.4 25.9
18:40 1008 29.77 838 24.75 30.6 87.2 11 -2.5 27.4
18:45 1008 29.77 838 24.75 30.3 86.6 11 -3.3 26.1
18:50 1009 29.8 838 24.75 30.4 86.7 11 -3 26.6
18:55 1008 29.77 838 24.75 30.2 86.3 11 -3 26.7
19:00 1008 29.77 838 24.75 30.3 86.5 10 -4.3 24.2
19:05 1008 29.77 838 24.75 30.3 86.6 11 -3.5 25.7
19:10 1009 29.8 838 24.75 30 86.1 11 -3.1 26.4
19:15 1009 29.8 838 24.75 29.8 85.6 12 -2.4 27.7
19:20 1009 29.8 838 24.75 29.2 84.5 11 -4.1 24.6
19:25 1009 29.8 838 24.75 29.5 85.1 11 -4.1 24.6
19:30 1009 29.8 838 24.75 29.6 85.3 11 -3.9 25
19:35 1009 29.8 838 24.75 29.3 84.8 12 -3.1 26.3
19:40 1009 29.8 838 24.75 29.3 84.7 11 -3.7 25.4
19:45 1009 29.8 838 24.75 28.7 83.7 12 -2.9 26.9
19:50 1009 29.8 838 24.75 28.7 83.7 11 -3.9 25
19:55 1009 29.8 838 24.75 28.7 83.7 11 -3.8 25.1
20:00 1009 29.8 838 24.75 28.8 83.8 11 -4.6 23.8
20:05 1009 29.8 838 24.75 28.8 83.9 11 -3.8 25.2
20:10 1009 29.8 838 24.75 28.3 82.9 12 -3.4 25.9
20:15 1009 29.8 838 24.75 27.8 82 12 -4 24.7
20:20 1009 29.8 838 24.75 28.3 82.9 11 -4.6 23.7
20:25 1009 29.8 838 24.75 28.1 82.5 12 -4.1 24.7
20:30 1009 29.8 838 24.75 27.7 81.8 12 -3.7 25.4
20:35 1009 29.8 838 24.75 27.4 81.3 12 -3.8 25.2
20:40 1009 29.8 838 24.75 27 80.5 13 -3.6 25.6
20:45 1009 29.8 838 24.75 26.9 80.4 13 -4 24.8
20:50 1009 29.8 838 24.75 27 80.6 13 -3.7 25.4
20:55 1009 29.8 838 24.75 26.5 79.7 14 -2.8 26.9
21:00 1009 29.8 838 24.75 25.5 77.9 14 -3.6 25.4
21:05 1009 29.8 838 24.75 25.3 77.5 15 -3 26.6
21:10 1009 29.8 838 24.75 25.2 77.3 14 -3.7 25.4
21:15 1009 29.8 838 24.75 24.7 76.5 18 -1 30.2
21:20 1009 29.8 838 24.75 24.3 75.7 20 0 32
21:25 1009 29.8 838 24.75 23.9 74.9 16 -3.3 26.1
21:30 1010 29.83 839 24.78 24.2 75.5 19 -0.4 31.2
21:35 1010 29.83 839 24.78 23.5 74.2 24 1.9 35.5
21:40 1010 29.83 839 24.78 22.6 72.7 26 2.4 36.3
21:45 1010 29.83 839 24.78 21.9 71.5 28 2.7 36.8
21:50 1010 29.83 839 24.78 21.5 70.7 29 2.8 37.1
21:55 1010 29.83 839 24.78 21.2 70.2 30 3 37.5
22:00 1010 29.83 839 24.78 20.9 69.7 30 2.9 37.2
22:05 1010 29.83 840 24.81 20.6 69.1 31 3 37.4
22:10 1010 29.83 840 24.81 20.6 69.1 30 2.8 37
22:15 1010 29.83 840 24.81 20.5 68.9 31 3.1 37.6
22:20 1010 29.83 840 24.81 19.9 67.8 34 3.7 38.7
22:25 1010 29.83 840 24.81 19.3 66.7 35 3.5 38.3
22:30 1010 29.83 840 24.81 19 66.2 34 3.1 37.5
22:35 1010 29.83 840 24.81 19.2 66.6 35 3.5 38.2
22:40 1010 29.83 840 24.81 19.1 66.4 35 3.6 38.6
22:45 1010 29.83 840 24.81 19.1 66.4 35 3.4 38.1
22:50 1011 29.85 840 24.81 19.3 66.8 35 3.7 38.7
22:55 1011 29.85 840 24.81 19.1 66.4 37 4.3 39.7
23:00 1011 29.85 840 24.81 19 66.1 37 3.9 39.1
23:05 1011 29.85 840 24.81 19 66.2 38 4.5 40.1
23:10 1011 29.85 840 24.81 18.9 66 38 4.5 40.1
23:15 1011 29.85 840 24.81 18.8 65.8 39 4.7 40.4
23:20 1011 29.85 840 24.81 18.8 65.8 38 4.5 40
23:25 1011 29.85 840 24.81 18.8 65.8 39 4.8 40.7
23:30 1011 29.85 840 24.81 18.7 65.7 39 4.6 40.3
23:35 1011 29.85 840 24.81 18.8 65.8 39 4.7 40.4
23:40 1011 29.85 840 24.81 18.5 65.3 41 5.2 41.3
23:45 1011 29.85 840 24.81 18.1 64.5 43 5.5 41.8
23:50 1011 29.85 840 24.81 17.8 64.1 43 5.3 41.6
23:55 1011 29.85 840 24.81 17.9 64.3 45 6.1 42.9
24:00 1012 29.88 841 24.83 17.5 63.4 48 6.6 43.8